sensor_id;sensor_type;location;lat;lon;timestamp;P1;durP1;ratioP1;P2;durP2;ratioP2
21754;SDS011;11039;50.028;19.938;2023-11-19T00:02:23;7.25;;;5.53;;
21754;SDS011;11039;50.028;19.938;2023-11-19T00:04:49;8.27;;;6.00;;
21754;SDS011;11039;50.028;19.938;2023-11-19T00:07:15;6.90;;;6.07;;
21754;SDS011;11039;50.028;19.938;2023-11-19T00:09:41;6.88;;;5.45;;
21754;SDS011;11039;50.028;19.938;2023-11-19T00:12:08;6.43;;;5.72;;
21754;SDS011;11039;50.028;19.938;2023-11-19T00:14:34;6.78;;;5.78;;
21754;SDS011;11039;50.028;19.938;2023-11-19T00:17:00;7.45;;;5.93;;
21754;SDS011;11039;50.028;19.938;2023-11-19T00:19:26;7.45;;;6.05;;
21754;SDS011;11039;50.028;19.938;2023-11-19T00:21:52;7.55;;;6.13;;
21754;SDS011;11039;50.028;19.938;2023-11-19T00:24:18;6.97;;;5.45;;
21754;SDS011;11039;50.028;19.938;2023-11-19T00:26:45;7.20;;;5.85;;
21754;SDS011;11039;50.028;19.938;2023-11-19T00:29:11;7.75;;;6.05;;
21754;SDS011;11039;50.028;19.938;2023-11-19T00:31:39;7.93;;;6.20;;
21754;SDS011;11039;50.028;19.938;2023-11-19T00:34:05;7.45;;;5.80;;
21754;SDS011;11039;50.028;19.938;2023-11-19T00:36:31;9.20;;;6.32;;
21754;SDS011;11039;50.028;19.938;2023-11-19T00:38:57;8.05;;;6.00;;
21754;SDS011;11039;50.028;19.938;2023-11-19T00:41:23;7.70;;;6.13;;
21754;SDS011;11039;50.028;19.938;2023-11-19T00:43:50;7.88;;;6.07;;
21754;SDS011;11039;50.028;19.938;2023-11-19T00:46:16;8.18;;;6.07;;
21754;SDS011;11039;50.028;19.938;2023-11-19T00:48:43;7.68;;;6.18;;
21754;SDS011;11039;50.028;19.938;2023-11-19T00:51:11;7.70;;;6.13;;
21754;SDS011;11039;50.028;19.938;2023-11-19T00:53:37;8.77;;;6.32;;
21754;SDS011;11039;50.028;19.938;2023-11-19T00:56:03;7.00;;;5.97;;
21754;SDS011;11039;50.028;19.938;2023-11-19T00:58:29;7.00;;;5.97;;
21754;SDS011;11039;50.028;19.938;2023-11-19T01:00:55;7.95;;;6.25;;
21754;SDS011;11039;50.028;19.938;2023-11-19T01:03:22;7.53;;;6.05;;
21754;SDS011;11039;50.028;19.938;2023-11-19T01:05:48;6.97;;;6.13;;
21754;SDS011;11039;50.028;19.938;2023-11-19T01:08:14;8.00;;;5.82;;
21754;SDS011;11039;50.028;19.938;2023-11-19T01:10:41;6.78;;;5.70;;
21754;SDS011;11039;50.028;19.938;2023-11-19T01:13:07;7.05;;;6.07;;
21754;SDS011;11039;50.028;19.938;2023-11-19T01:15:33;7.07;;;6.07;;
21754;SDS011;11039;50.028;19.938;2023-11-19T01:17:59;7.70;;;6.55;;
21754;SDS011;11039;50.028;19.938;2023-11-19T01:20:27;7.53;;;6.32;;
21754;SDS011;11039;50.028;19.938;2023-11-19T01:22:53;8.02;;;6.25;;
21754;SDS011;11039;50.028;19.938;2023-11-19T01:25:19;8.63;;;6.22;;
21754;SDS011;11039;50.028;19.938;2023-11-19T01:27:45;7.93;;;6.15;;
21754;SDS011;11039;50.028;19.938;2023-11-19T01:30:11;7.70;;;6.32;;
21754;SDS011;11039;50.028;19.938;2023-11-19T01:32:38;8.23;;;6.78;;
21754;SDS011;11039;50.028;19.938;2023-11-19T01:35:04;8.13;;;6.20;;
21754;SDS011;11039;50.028;19.938;2023-11-19T01:37:30;7.35;;;6.05;;
21754;SDS011;11039;50.028;19.938;2023-11-19T01:40:00;7.53;;;6.40;;
21754;SDS011;11039;50.028;19.938;2023-11-19T01:42:28;7.47;;;6.10;;
21754;SDS011;11039;50.028;19.938;2023-11-19T01:45:00;6.82;;;6.13;;
21754;SDS011;11039;50.028;19.938;2023-11-19T01:47:30;7.20;;;6.15;;
21754;SDS011;11039;50.028;19.938;2023-11-19T01:49:56;7.15;;;5.75;;
21754;SDS011;11039;50.028;19.938;2023-11-19T01:52:22;8.05;;;6.40;;
21754;SDS011;11039;50.028;19.938;2023-11-19T01:54:49;7.10;;;5.85;;
21754;SDS011;11039;50.028;19.938;2023-11-19T01:57:16;7.07;;;6.07;;
21754;SDS011;11039;50.028;19.938;2023-11-19T01:59:42;8.02;;;6.25;;
21754;SDS011;11039;50.028;19.938;2023-11-19T02:04:27;7.13;;;6.03;;
21754;SDS011;11039;50.028;19.938;2023-11-19T02:06:53;6.45;;;5.63;;
21754;SDS011;11039;50.028;19.938;2023-11-19T02:09:22;7.88;;;6.60;;
21754;SDS011;11039;50.028;19.938;2023-11-19T02:11:48;8.02;;;6.63;;
21754;SDS011;11039;50.028;19.938;2023-11-19T02:14:16;6.68;;;5.90;;
21754;SDS011;11039;50.028;19.938;2023-11-19T02:16:42;7.28;;;6.15;;
21754;SDS011;11039;50.028;19.938;2023-11-19T02:19:08;7.60;;;6.20;;
21754;SDS011;11039;50.028;19.938;2023-11-19T02:21:36;6.93;;;6.22;;
21754;SDS011;11039;50.028;19.938;2023-11-19T02:24:03;8.43;;;6.50;;
21754;SDS011;11039;50.028;19.938;2023-11-19T02:28:58;7.65;;;6.10;;
21754;SDS011;11039;50.028;19.938;2023-11-19T02:31:24;9.68;;;7.05;;
21754;SDS011;11039;50.028;19.938;2023-11-19T02:33:52;7.85;;;6.40;;
21754;SDS011;11039;50.028;19.938;2023-11-19T02:36:18;6.97;;;6.03;;
21754;SDS011;11039;50.028;19.938;2023-11-19T02:38:44;8.13;;;6.03;;
21754;SDS011;11039;50.028;19.938;2023-11-19T02:41:11;8.10;;;6.30;;
21754;SDS011;11039;50.028;19.938;2023-11-19T02:43:37;7.47;;;6.10;;
21754;SDS011;11039;50.028;19.938;2023-11-19T02:46:04;6.97;;;6.13;;
21754;SDS011;11039;50.028;19.938;2023-11-19T02:48:32;8.98;;;6.32;;
21754;SDS011;11039;50.028;19.938;2023-11-19T02:50:58;7.03;;;6.30;;
21754;SDS011;11039;50.028;19.938;2023-11-19T02:53:24;7.03;;;6.20;;
21754;SDS011;11039;50.028;19.938;2023-11-19T02:55:52;7.07;;;6.38;;
21754;SDS011;11039;50.028;19.938;2023-11-19T02:58:18;8.02;;;6.53;;
21754;SDS011;11039;50.028;19.938;2023-11-19T03:00:45;7.85;;;6.63;;
21754;SDS011;11039;50.028;19.938;2023-11-19T03:03:22;7.07;;;6.35;;
21754;SDS011;11039;50.028;19.938;2023-11-19T03:05:51;7.18;;;6.28;;
21754;SDS011;11039;50.028;19.938;2023-11-19T03:08:17;7.95;;;6.90;;
21754;SDS011;11039;50.028;19.938;2023-11-19T03:10:43;7.57;;;6.38;;
21754;SDS011;11039;50.028;19.938;2023-11-19T03:13:10;8.63;;;6.53;;
21754;SDS011;11039;50.028;19.938;2023-11-19T03:15:40;8.48;;;6.75;;
21754;SDS011;11039;50.028;19.938;2023-11-19T03:18:07;7.80;;;6.78;;
21754;SDS011;11039;50.028;19.938;2023-11-19T03:20:33;7.50;;;6.53;;
21754;SDS011;11039;50.028;19.938;2023-11-19T03:22:59;8.43;;;6.95;;
21754;SDS011;11039;50.028;19.938;2023-11-19T03:25:28;8.38;;;6.40;;
21754;SDS011;11039;50.028;19.938;2023-11-19T03:27:59;7.85;;;6.32;;
21754;SDS011;11039;50.028;19.938;2023-11-19T03:30:26;7.20;;;6.28;;
21754;SDS011;11039;50.028;19.938;2023-11-19T03:32:53;7.63;;;6.43;;
21754;SDS011;11039;50.028;19.938;2023-11-19T03:35:19;7.78;;;6.63;;
21754;SDS011;11039;50.028;19.938;2023-11-19T03:37:45;7.57;;;6.53;;
21754;SDS011;11039;50.028;19.938;2023-11-19T03:40:11;8.25;;;6.70;;
21754;SDS011;11039;50.028;19.938;2023-11-19T03:42:37;7.43;;;6.38;;
21754;SDS011;11039;50.028;19.938;2023-11-19T03:45:07;7.40;;;6.45;;
21754;SDS011;11039;50.028;19.938;2023-11-19T03:47:36;8.95;;;6.68;;
21754;SDS011;11039;50.028;19.938;2023-11-19T03:50:02;7.97;;;6.15;;
21754;SDS011;11039;50.028;19.938;2023-11-19T03:52:29;7.95;;;6.10;;
21754;SDS011;11039;50.028;19.938;2023-11-19T03:54:55;7.18;;;6.25;;
21754;SDS011;11039;50.028;19.938;2023-11-19T03:57:24;8.05;;;6.63;;
21754;SDS011;11039;50.028;19.938;2023-11-19T03:59:50;8.40;;;6.97;;
21754;SDS011;11039;50.028;19.938;2023-11-19T04:04:34;7.70;;;6.50;;
21754;SDS011;11039;50.028;19.938;2023-11-19T04:07:00;7.90;;;6.53;;
21754;SDS011;11039;50.028;19.938;2023-11-19T04:09:28;7.70;;;6.60;;
21754;SDS011;11039;50.028;19.938;2023-11-19T04:11:55;8.35;;;6.90;;
21754;SDS011;11039;50.028;19.938;2023-11-19T04:14:21;7.93;;;7.03;;
21754;SDS011;11039;50.028;19.938;2023-11-19T04:16:47;8.57;;;7.13;;
21754;SDS011;11039;50.028;19.938;2023-11-19T04:19:13;8.32;;;6.90;;
21754;SDS011;11039;50.028;19.938;2023-11-19T04:21:41;7.45;;;6.50;;
21754;SDS011;11039;50.028;19.938;2023-11-19T04:24:08;8.45;;;7.13;;
21754;SDS011;11039;50.028;19.938;2023-11-19T04:26:39;8.18;;;7.30;;
21754;SDS011;11039;50.028;19.938;2023-11-19T04:29:07;8.30;;;6.40;;
21754;SDS011;11039;50.028;19.938;2023-11-19T04:31:33;7.97;;;6.35;;
21754;SDS011;11039;50.028;19.938;2023-11-19T04:33:59;7.75;;;6.55;;
21754;SDS011;11039;50.028;19.938;2023-11-19T04:38:46;8.23;;;6.60;;
21754;SDS011;11039;50.028;19.938;2023-11-19T04:41:12;8.95;;;6.50;;
21754;SDS011;11039;50.028;19.938;2023-11-19T04:43:39;8.57;;;7.05;;
21754;SDS011;11039;50.028;19.938;2023-11-19T04:46:05;8.23;;;6.80;;
21754;SDS011;11039;50.028;19.938;2023-11-19T04:48:31;8.18;;;6.32;;
21754;SDS011;11039;50.028;19.938;2023-11-19T04:50:57;8.82;;;6.68;;
21754;SDS011;11039;50.028;19.938;2023-11-19T04:53:23;8.70;;;6.82;;
21754;SDS011;11039;50.028;19.938;2023-11-19T04:55:49;8.07;;;6.72;;
21754;SDS011;11039;50.028;19.938;2023-11-19T04:58:15;8.98;;;7.07;;
21754;SDS011;11039;50.028;19.938;2023-11-19T05:00:41;9.43;;;7.03;;
21754;SDS011;11039;50.028;19.938;2023-11-19T05:03:07;8.98;;;7.25;;
21754;SDS011;11039;50.028;19.938;2023-11-19T05:05:33;8.55;;;6.75;;
21754;SDS011;11039;50.028;19.938;2023-11-19T05:07:59;8.32;;;7.05;;
21754;SDS011;11039;50.028;19.938;2023-11-19T05:10:26;10.13;;;7.22;;
21754;SDS011;11039;50.028;19.938;2023-11-19T05:12:52;8.27;;;6.95;;
21754;SDS011;11039;50.028;19.938;2023-11-19T05:15:18;8.10;;;6.65;;
21754;SDS011;11039;50.028;19.938;2023-11-19T05:17:44;8.90;;;7.07;;
21754;SDS011;11039;50.028;19.938;2023-11-19T05:20:10;8.10;;;6.90;;
21754;SDS011;11039;50.028;19.938;2023-11-19T05:22:42;8.38;;;6.93;;
21754;SDS011;11039;50.028;19.938;2023-11-19T05:25:08;9.35;;;6.97;;
21754;SDS011;11039;50.028;19.938;2023-11-19T05:27:36;7.70;;;6.45;;
21754;SDS011;11039;50.028;19.938;2023-11-19T05:30:02;9.77;;;7.53;;
21754;SDS011;11039;50.028;19.938;2023-11-19T05:32:28;8.10;;;6.50;;
21754;SDS011;11039;50.028;19.938;2023-11-19T05:34:54;9.20;;;7.57;;
21754;SDS011;11039;50.028;19.938;2023-11-19T05:37:21;8.85;;;7.13;;
21754;SDS011;11039;50.028;19.938;2023-11-19T05:39:47;8.57;;;7.03;;
21754;SDS011;11039;50.028;19.938;2023-11-19T05:42:13;8.30;;;7.13;;
21754;SDS011;11039;50.028;19.938;2023-11-19T05:44:39;9.05;;;6.80;;
21754;SDS011;11039;50.028;19.938;2023-11-19T05:49:24;7.15;;;6.18;;
21754;SDS011;11039;50.028;19.938;2023-11-19T05:51:50;7.75;;;6.93;;
21754;SDS011;11039;50.028;19.938;2023-11-19T05:54:16;7.75;;;6.55;;
21754;SDS011;11039;50.028;19.938;2023-11-19T05:56:47;9.25;;;7.25;;
21754;SDS011;11039;50.028;19.938;2023-11-19T05:59:13;8.23;;;7.10;;
21754;SDS011;11039;50.028;19.938;2023-11-19T06:01:42;8.60;;;6.97;;
21754;SDS011;11039;50.028;19.938;2023-11-19T06:04:08;8.25;;;7.18;;
21754;SDS011;11039;50.028;19.938;2023-11-19T06:06:35;8.20;;;7.15;;
21754;SDS011;11039;50.028;19.938;2023-11-19T06:09:01;9.10;;;7.72;;
21754;SDS011;11039;50.028;19.938;2023-11-19T06:11:27;8.75;;;7.13;;
21754;SDS011;11039;50.028;19.938;2023-11-19T06:13:53;8.40;;;7.00;;
21754;SDS011;11039;50.028;19.938;2023-11-19T06:16:20;7.60;;;6.80;;
21754;SDS011;11039;50.028;19.938;2023-11-19T06:18:46;8.13;;;6.82;;
21754;SDS011;11039;50.028;19.938;2023-11-19T06:21:12;8.05;;;6.80;;
21754;SDS011;11039;50.028;19.938;2023-11-19T06:23:38;8.40;;;7.25;;
21754;SDS011;11039;50.028;19.938;2023-11-19T06:26:04;7.80;;;7.00;;
21754;SDS011;11039;50.028;19.938;2023-11-19T06:28:31;8.85;;;7.38;;
21754;SDS011;11039;50.028;19.938;2023-11-19T06:30:57;8.90;;;7.50;;
21754;SDS011;11039;50.028;19.938;2023-11-19T06:35:41;7.90;;;6.70;;
21754;SDS011;11039;50.028;19.938;2023-11-19T06:38:07;9.45;;;7.60;;
21754;SDS011;11039;50.028;19.938;2023-11-19T06:40:33;8.93;;;7.82;;
21754;SDS011;11039;50.028;19.938;2023-11-19T06:43:03;10.30;;;7.28;;
21754;SDS011;11039;50.028;19.938;2023-11-19T06:45:29;8.80;;;7.30;;
21754;SDS011;11039;50.028;19.938;2023-11-19T06:47:55;8.88;;;7.88;;
21754;SDS011;11039;50.028;19.938;2023-11-19T06:50:21;8.73;;;7.47;;
21754;SDS011;11039;50.028;19.938;2023-11-19T06:52:48;8.93;;;7.32;;
21754;SDS011;11039;50.028;19.938;2023-11-19T06:55:15;8.95;;;7.43;;
21754;SDS011;11039;50.028;19.938;2023-11-19T06:57:41;8.63;;;7.43;;
21754;SDS011;11039;50.028;19.938;2023-11-19T07:00:07;9.07;;;7.43;;
21754;SDS011;11039;50.028;19.938;2023-11-19T07:02:33;8.23;;;7.32;;
21754;SDS011;11039;50.028;19.938;2023-11-19T07:04:59;8.35;;;6.97;;
21754;SDS011;11039;50.028;19.938;2023-11-19T07:07:25;8.25;;;6.70;;
21754;SDS011;11039;50.028;19.938;2023-11-19T07:09:51;10.15;;;7.85;;
21754;SDS011;11039;50.028;19.938;2023-11-19T07:12:17;8.50;;;7.10;;
21754;SDS011;11039;50.028;19.938;2023-11-19T07:14:44;9.63;;;7.63;;
21754;SDS011;11039;50.028;19.938;2023-11-19T07:17:11;10.40;;;8.15;;
21754;SDS011;11039;50.028;19.938;2023-11-19T07:19:37;8.32;;;6.93;;
21754;SDS011;11039;50.028;19.938;2023-11-19T07:22:03;8.40;;;7.47;;
21754;SDS011;11039;50.028;19.938;2023-11-19T07:24:31;8.73;;;7.05;;
21754;SDS011;11039;50.028;19.938;2023-11-19T07:26:57;9.75;;;7.95;;
21754;SDS011;11039;50.028;19.938;2023-11-19T07:29:23;8.85;;;7.65;;
21754;SDS011;11039;50.028;19.938;2023-11-19T07:31:49;8.55;;;6.88;;
21754;SDS011;11039;50.028;19.938;2023-11-19T07:34:16;10.13;;;7.60;;
21754;SDS011;11039;50.028;19.938;2023-11-19T07:36:41;9.73;;;7.85;;
21754;SDS011;11039;50.028;19.938;2023-11-19T07:39:08;9.00;;;7.32;;
21754;SDS011;11039;50.028;19.938;2023-11-19T07:41:34;8.65;;;6.50;;
21754;SDS011;11039;50.028;19.938;2023-11-19T07:44:00;8.63;;;7.13;;
21754;SDS011;11039;50.028;19.938;2023-11-19T07:46:26;8.50;;;6.95;;
21754;SDS011;11039;50.028;19.938;2023-11-19T07:48:52;9.38;;;7.65;;
21754;SDS011;11039;50.028;19.938;2023-11-19T07:51:18;9.20;;;7.38;;
21754;SDS011;11039;50.028;19.938;2023-11-19T07:53:44;8.65;;;7.55;;
21754;SDS011;11039;50.028;19.938;2023-11-19T07:56:10;10.00;;;7.68;;
21754;SDS011;11039;50.028;19.938;2023-11-19T07:58:36;9.40;;;7.13;;
21754;SDS011;11039;50.028;19.938;2023-11-19T08:01:02;8.73;;;7.35;;
21754;SDS011;11039;50.028;19.938;2023-11-19T08:03:28;8.20;;;6.57;;
21754;SDS011;11039;50.028;19.938;2023-11-19T08:05:57;7.97;;;6.85;;
21754;SDS011;11039;50.028;19.938;2023-11-19T08:08:23;7.85;;;7.05;;
21754;SDS011;11039;50.028;19.938;2023-11-19T08:10:49;8.55;;;7.28;;
21754;SDS011;11039;50.028;19.938;2023-11-19T08:13:17;8.23;;;6.85;;
21754;SDS011;11039;50.028;19.938;2023-11-19T08:15:43;9.07;;;7.10;;
21754;SDS011;11039;50.028;19.938;2023-11-19T08:18:10;7.70;;;6.90;;
21754;SDS011;11039;50.028;19.938;2023-11-19T08:20:36;8.32;;;7.25;;
21754;SDS011;11039;50.028;19.938;2023-11-19T08:23:02;8.50;;;7.28;;
21754;SDS011;11039;50.028;19.938;2023-11-19T08:25:31;8.18;;;6.93;;
21754;SDS011;11039;50.028;19.938;2023-11-19T08:27:58;8.60;;;6.75;;
21754;SDS011;11039;50.028;19.938;2023-11-19T08:30:25;8.30;;;7.18;;
21754;SDS011;11039;50.028;19.938;2023-11-19T08:32:51;8.63;;;7.25;;
21754;SDS011;11039;50.028;19.938;2023-11-19T08:35:17;8.82;;;7.05;;
21754;SDS011;11039;50.028;19.938;2023-11-19T08:37:44;10.27;;;7.15;;
21754;SDS011;11039;50.028;19.938;2023-11-19T08:40:11;8.57;;;7.32;;
21754;SDS011;11039;50.028;19.938;2023-11-19T08:42:39;7.38;;;6.57;;
21754;SDS011;11039;50.028;19.938;2023-11-19T08:45:05;8.70;;;6.68;;
21754;SDS011;11039;50.028;19.938;2023-11-19T08:47:31;8.30;;;6.50;;
21754;SDS011;11039;50.028;19.938;2023-11-19T08:49:57;6.85;;;6.20;;
21754;SDS011;11039;50.028;19.938;2023-11-19T08:52:23;8.35;;;6.43;;
21754;SDS011;11039;50.028;19.938;2023-11-19T08:54:49;8.95;;;6.90;;
21754;SDS011;11039;50.028;19.938;2023-11-19T08:57:15;8.73;;;7.10;;
21754;SDS011;11039;50.028;19.938;2023-11-19T08:59:41;8.05;;;6.90;;
21754;SDS011;11039;50.028;19.938;2023-11-19T09:02:08;7.93;;;6.47;;
21754;SDS011;11039;50.028;19.938;2023-11-19T09:04:34;9.95;;;6.57;;
21754;SDS011;11039;50.028;19.938;2023-11-19T09:07:01;8.30;;;6.95;;
21754;SDS011;11039;50.028;19.938;2023-11-19T09:09:28;8.15;;;6.75;;
21754;SDS011;11039;50.028;19.938;2023-11-19T09:11:54;8.93;;;6.43;;
21754;SDS011;11039;50.028;19.938;2023-11-19T09:16:38;8.53;;;6.87;;
21754;SDS011;11039;50.028;19.938;2023-11-19T09:19:04;9.80;;;6.90;;
21754;SDS011;11039;50.028;19.938;2023-11-19T09:21:30;7.45;;;6.40;;
21754;SDS011;11039;50.028;19.938;2023-11-19T09:23:57;8.30;;;6.30;;
21754;SDS011;11039;50.028;19.938;2023-11-19T09:26:23;7.75;;;6.35;;
21754;SDS011;11039;50.028;19.938;2023-11-19T09:28:49;7.45;;;6.07;;
21754;SDS011;11039;50.028;19.938;2023-11-19T09:31:16;8.02;;;6.53;;
21754;SDS011;11039;50.028;19.938;2023-11-19T09:33:42;7.65;;;6.25;;
21754;SDS011;11039;50.028;19.938;2023-11-19T09:36:09;7.13;;;6.05;;
21754;SDS011;11039;50.028;19.938;2023-11-19T09:38:37;7.55;;;6.72;;
21754;SDS011;11039;50.028;19.938;2023-11-19T09:41:06;8.25;;;6.22;;
21754;SDS011;11039;50.028;19.938;2023-11-19T09:43:37;9.70;;;6.50;;
21754;SDS011;11039;50.028;19.938;2023-11-19T09:46:06;7.63;;;6.32;;
21754;SDS011;11039;50.028;19.938;2023-11-19T09:48:37;8.73;;;6.03;;
21754;SDS011;11039;50.028;19.938;2023-11-19T09:53:22;7.55;;;6.35;;
21754;SDS011;11039;50.028;19.938;2023-11-19T09:55:48;7.45;;;5.82;;
21754;SDS011;11039;50.028;19.938;2023-11-19T09:58:14;7.30;;;6.22;;
21754;SDS011;11039;50.028;19.938;2023-11-19T10:02:59;10.82;;;6.07;;
21754;SDS011;11039;50.028;19.938;2023-11-19T10:05:25;9.32;;;6.03;;
21754;SDS011;11039;50.028;19.938;2023-11-19T10:07:51;7.60;;;5.85;;
21754;SDS011;11039;50.028;19.938;2023-11-19T10:10:18;7.45;;;5.70;;
21754;SDS011;11039;50.028;19.938;2023-11-19T10:12:46;6.65;;;5.40;;
21754;SDS011;11039;50.028;19.938;2023-11-19T10:15:22;6.70;;;5.63;;
21754;SDS011;11039;50.028;19.938;2023-11-19T10:17:54;7.63;;;6.18;;
21754;SDS011;11039;50.028;19.938;2023-11-19T10:20:20;9.15;;;5.75;;
21754;SDS011;11039;50.028;19.938;2023-11-19T10:22:46;6.60;;;5.45;;
21754;SDS011;11039;50.028;19.938;2023-11-19T10:25:22;7.20;;;5.88;;
21754;SDS011;11039;50.028;19.938;2023-11-19T10:27:49;7.40;;;6.15;;
21754;SDS011;11039;50.028;19.938;2023-11-19T10:30:24;8.68;;;5.97;;
21754;SDS011;11039;50.028;19.938;2023-11-19T10:33:07;7.05;;;5.80;;
21754;SDS011;11039;50.028;19.938;2023-11-19T10:35:37;7.35;;;5.03;;
21754;SDS011;11039;50.028;19.938;2023-11-19T10:38:19;7.20;;;5.70;;
21754;SDS011;11039;50.028;19.938;2023-11-19T10:40:46;7.45;;;5.80;;
21754;SDS011;11039;50.028;19.938;2023-11-19T10:43:12;6.45;;;5.50;;
21754;SDS011;11039;50.028;19.938;2023-11-19T10:45:38;6.72;;;5.43;;
21754;SDS011;11039;50.028;19.938;2023-11-19T10:48:05;6.43;;;5.38;;
21754;SDS011;11039;50.028;19.938;2023-11-19T10:50:34;6.78;;;5.90;;
21754;SDS011;11039;50.028;19.938;2023-11-19T10:53:01;7.82;;;5.65;;
21754;SDS011;11039;50.028;19.938;2023-11-19T10:55:29;6.88;;;5.50;;
21754;SDS011;11039;50.028;19.938;2023-11-19T10:58:04;7.55;;;5.25;;
21754;SDS011;11039;50.028;19.938;2023-11-19T11:03:05;7.07;;;5.82;;
21754;SDS011;11039;50.028;19.938;2023-11-19T11:05:35;6.75;;;5.47;;
21754;SDS011;11039;50.028;19.938;2023-11-19T11:08:02;6.30;;;4.82;;
21754;SDS011;11039;50.028;19.938;2023-11-19T11:10:32;5.75;;;5.03;;
21754;SDS011;11039;50.028;19.938;2023-11-19T11:13:03;5.85;;;5.07;;
21754;SDS011;11039;50.028;19.938;2023-11-19T11:15:29;6.88;;;5.60;;
21754;SDS011;11039;50.028;19.938;2023-11-19T11:17:57;5.90;;;5.18;;
21754;SDS011;11039;50.028;19.938;2023-11-19T11:20:26;6.72;;;5.45;;
21754;SDS011;11039;50.028;19.938;2023-11-19T11:23:15;6.13;;;5.30;;
21754;SDS011;11039;50.028;19.938;2023-11-19T11:38:45;7.75;;;6.18;;
21754;SDS011;11039;50.028;19.938;2023-11-19T11:41:19;6.47;;;4.93;;
21754;SDS011;11039;50.028;19.938;2023-11-19T11:43:49;5.50;;;4.88;;
21754;SDS011;11039;50.028;19.938;2023-11-19T11:49:01;6.38;;;5.15;;
21754;SDS011;11039;50.028;19.938;2023-11-19T11:52:27;5.32;;;4.82;;
21754;SDS011;11039;50.028;19.938;2023-11-19T12:02:07;7.45;;;5.47;;
21754;SDS011;11039;50.028;19.938;2023-11-19T12:04:34;10.27;;;5.47;;
21754;SDS011;11039;50.028;19.938;2023-11-19T12:07:04;5.85;;;4.80;;
21754;SDS011;11039;50.028;19.938;2023-11-19T12:09:31;6.18;;;4.93;;
21754;SDS011;11039;50.028;19.938;2023-11-19T12:12:07;7.80;;;4.88;;
21754;SDS011;11039;50.028;19.938;2023-11-19T12:20:02;5.70;;;4.88;;
21754;SDS011;11039;50.028;19.938;2023-11-19T12:22:29;5.10;;;4.53;;
21754;SDS011;11039;50.028;19.938;2023-11-19T12:24:55;6.82;;;5.22;;
21754;SDS011;11039;50.028;19.938;2023-11-19T12:27:21;5.97;;;4.97;;
21754;SDS011;11039;50.028;19.938;2023-11-19T12:29:47;6.20;;;4.90;;
21754;SDS011;11039;50.028;19.938;2023-11-19T12:32:13;7.28;;;4.57;;
21754;SDS011;11039;50.028;19.938;2023-11-19T12:34:39;5.63;;;4.45;;
21754;SDS011;11039;50.028;19.938;2023-11-19T12:37:05;7.07;;;5.05;;
21754;SDS011;11039;50.028;19.938;2023-11-19T12:39:33;7.18;;;5.50;;
21754;SDS011;11039;50.028;19.938;2023-11-19T12:41:59;8.50;;;5.43;;
21754;SDS011;11039;50.028;19.938;2023-11-19T12:44:25;7.28;;;5.60;;
21754;SDS011;11039;50.028;19.938;2023-11-19T12:47:04;9.73;;;6.10;;
21754;SDS011;11039;50.028;19.938;2023-11-19T12:49:31;13.55;;;7.90;;
21754;SDS011;11039;50.028;19.938;2023-11-19T12:51:58;10.45;;;6.70;;
21754;SDS011;11039;50.028;19.938;2023-11-19T12:54:34;12.35;;;7.35;;
21754;SDS011;11039;50.028;19.938;2023-11-19T12:57:01;13.25;;;7.35;;
21754;SDS011;11039;50.028;19.938;2023-11-19T12:59:27;10.98;;;7.05;;
21754;SDS011;11039;50.028;19.938;2023-11-19T13:02:02;11.73;;;6.75;;
21754;SDS011;11039;50.028;19.938;2023-11-19T13:04:30;11.40;;;5.93;;
21754;SDS011;11039;50.028;19.938;2023-11-19T13:06:57;9.98;;;6.03;;
21754;SDS011;11039;50.028;19.938;2023-11-19T13:09:24;9.65;;;6.28;;
21754;SDS011;11039;50.028;19.938;2023-11-19T13:11:50;6.95;;;5.20;;
21754;SDS011;11039;50.028;19.938;2023-11-19T13:14:16;12.05;;;5.75;;
21754;SDS011;11039;50.028;19.938;2023-11-19T13:16:42;9.25;;;5.82;;
21754;SDS011;11039;50.028;19.938;2023-11-19T13:19:10;8.38;;;5.60;;
21754;SDS011;11039;50.028;19.938;2023-11-19T13:21:36;9.32;;;5.13;;
21754;SDS011;11039;50.028;19.938;2023-11-19T13:24:03;8.63;;;5.72;;
21754;SDS011;11039;50.028;19.938;2023-11-19T13:26:29;7.28;;;5.20;;
21754;SDS011;11039;50.028;19.938;2023-11-19T13:28:55;6.65;;;4.85;;
21754;SDS011;11039;50.028;19.938;2023-11-19T13:31:21;9.18;;;5.55;;
21754;SDS011;11039;50.028;19.938;2023-11-19T13:33:48;7.22;;;5.22;;
21754;SDS011;11039;50.028;19.938;2023-11-19T13:36:14;7.70;;;4.97;;
21754;SDS011;11039;50.028;19.938;2023-11-19T13:38:40;7.47;;;5.55;;
21754;SDS011;11039;50.028;19.938;2023-11-19T13:41:07;6.50;;;4.32;;
21754;SDS011;11039;50.028;19.938;2023-11-19T13:43:37;6.50;;;4.68;;
21754;SDS011;11039;50.028;19.938;2023-11-19T13:46:03;7.45;;;5.00;;
21754;SDS011;11039;50.028;19.938;2023-11-19T13:48:29;6.43;;;4.60;;
21754;SDS011;11039;50.028;19.938;2023-11-19T13:50:55;6.95;;;4.90;;
21754;SDS011;11039;50.028;19.938;2023-11-19T13:53:21;6.72;;;4.78;;
21754;SDS011;11039;50.028;19.938;2023-11-19T13:55:50;6.72;;;4.72;;
21754;SDS011;11039;50.028;19.938;2023-11-19T13:58:18;8.50;;;5.20;;
21754;SDS011;11039;50.028;19.938;2023-11-19T14:00:44;6.00;;;4.47;;
21754;SDS011;11039;50.028;19.938;2023-11-19T14:03:10;6.28;;;4.47;;
21754;SDS011;11039;50.028;19.938;2023-11-19T14:05:36;6.38;;;4.40;;
21754;SDS011;11039;50.028;19.938;2023-11-19T14:08:02;6.53;;;4.40;;
21754;SDS011;11039;50.028;19.938;2023-11-19T14:10:36;7.55;;;4.45;;
21754;SDS011;11039;50.028;19.938;2023-11-19T14:13:03;6.78;;;4.40;;
21754;SDS011;11039;50.028;19.938;2023-11-19T14:15:30;6.43;;;4.28;;
21754;SDS011;11039;50.028;19.938;2023-11-19T14:17:56;6.90;;;4.47;;
21754;SDS011;11039;50.028;19.938;2023-11-19T14:20:22;5.13;;;4.40;;
21754;SDS011;11039;50.028;19.938;2023-11-19T14:22:48;6.47;;;4.72;;
21754;SDS011;11039;50.028;19.938;2023-11-19T14:25:15;5.65;;;4.13;;
21754;SDS011;11039;50.028;19.938;2023-11-19T14:27:42;6.15;;;4.78;;
21754;SDS011;11039;50.028;19.938;2023-11-19T14:30:09;6.03;;;4.43;;
21754;SDS011;11039;50.028;19.938;2023-11-19T14:32:38;5.88;;;4.18;;
21754;SDS011;11039;50.028;19.938;2023-11-19T14:35:05;6.85;;;4.43;;
21754;SDS011;11039;50.028;19.938;2023-11-19T14:37:31;8.63;;;4.47;;
21754;SDS011;11039;50.028;19.938;2023-11-19T14:39:57;6.05;;;4.40;;
21754;SDS011;11039;50.028;19.938;2023-11-19T14:42:24;6.65;;;4.20;;
21754;SDS011;11039;50.028;19.938;2023-11-19T14:44:53;6.03;;;4.55;;
21754;SDS011;11039;50.028;19.938;2023-11-19T14:47:22;5.50;;;4.30;;
21754;SDS011;11039;50.028;19.938;2023-11-19T14:49:48;5.05;;;3.80;;
21754;SDS011;11039;50.028;19.938;2023-11-19T14:52:14;5.90;;;3.83;;
21754;SDS011;11039;50.028;19.938;2023-11-19T14:54:40;5.22;;;4.28;;
21754;SDS011;11039;50.028;19.938;2023-11-19T14:57:06;5.68;;;4.40;;
21754;SDS011;11039;50.028;19.938;2023-11-19T14:59:33;6.40;;;4.20;;
21754;SDS011;11039;50.028;19.938;2023-11-19T15:01:59;4.65;;;3.88;;
21754;SDS011;11039;50.028;19.938;2023-11-19T15:04:26;6.07;;;4.13;;
21754;SDS011;11039;50.028;19.938;2023-11-19T15:06:52;6.25;;;4.43;;
21754;SDS011;11039;50.028;19.938;2023-11-19T15:09:18;5.15;;;4.03;;
21754;SDS011;11039;50.028;19.938;2023-11-19T15:11:46;5.68;;;4.40;;
21754;SDS011;11039;50.028;19.938;2023-11-19T15:14:15;5.05;;;3.90;;
21754;SDS011;11039;50.028;19.938;2023-11-19T15:16:44;4.72;;;3.92;;
21754;SDS011;11039;50.028;19.938;2023-11-19T15:19:10;4.45;;;3.47;;
21754;SDS011;11039;50.028;19.938;2023-11-19T15:21:37;5.18;;;4.05;;
21754;SDS011;11039;50.028;19.938;2023-11-19T15:24:04;4.68;;;4.15;;
21754;SDS011;11039;50.028;19.938;2023-11-19T15:26:33;5.60;;;4.35;;